sensor_id;sensor_type;location;lat;lon;timestamp;P1;durP1;ratioP1;P2;durP2;ratioP2
15240;SDS011;7723;52.170;9.978;2023-03-11T00:00:52;0.43;;;0.43;;
15240;SDS011;7723;52.170;9.978;2023-03-11T00:03:19;0.97;;;0.33;;
15240;SDS011;7723;52.170;9.978;2023-03-11T00:05:50;2.10;;;0.83;;
15240;SDS011;7723;52.170;9.978;2023-03-11T00:08:19;0.00;;;0.00;;
15240;SDS011;7723;52.170;9.978;2023-03-11T00:10:50;0.00;;;0.00;;
15240;SDS011;7723;52.170;9.978;2023-03-11T00:13:19;0.00;;;0.00;;
15240;SDS011;7723;52.170;9.978;2023-03-11T00:15:47;0.63;;;0.63;;
15240;SDS011;7723;52.170;9.978;2023-03-11T00:18:16;0.00;;;0.00;;
15240;SDS011;7723;52.170;9.978;2023-03-11T00:20:44;0.13;;;0.13;;
15240;SDS011;7723;52.170;9.978;2023-03-11T00:23:13;0.00;;;0.00;;
15240;SDS011;7723;52.170;9.978;2023-03-11T00:25:41;0.73;;;0.73;;
15240;SDS011;7723;52.170;9.978;2023-03-11T00:28:09;0.00;;;0.00;;
15240;SDS011;7723;52.170;9.978;2023-03-11T00:30:37;0.00;;;0.00;;
15240;SDS011;7723;52.170;9.978;2023-03-11T00:33:06;0.00;;;0.00;;
15240;SDS011;7723;52.170;9.978;2023-03-11T00:35:34;0.00;;;0.00;;
15240;SDS011;7723;52.170;9.978;2023-03-11T00:38:02;0.00;;;0.00;;
15240;SDS011;7723;52.170;9.978;2023-03-11T00:40:32;0.00;;;0.00;;
15240;SDS011;7723;52.170;9.978;2023-03-11T00:43:01;0.00;;;0.00;;
15240;SDS011;7723;52.170;9.978;2023-03-11T00:45:29;0.00;;;0.00;;
15240;SDS011;7723;52.170;9.978;2023-03-11T00:47:56;0.00;;;0.00;;
15240;SDS011;7723;52.170;9.978;2023-03-11T00:50:24;0.00;;;0.00;;
15240;SDS011;7723;52.170;9.978;2023-03-11T00:52:53;1.60;;;1.57;;
15240;SDS011;7723;52.170;9.978;2023-03-11T00:55:21;1.80;;;0.87;;
15240;SDS011;7723;52.170;9.978;2023-03-11T00:57:52;0.03;;;0.03;;
15240;SDS011;7723;52.170;9.978;2023-03-11T01:00:20;0.00;;;0.00;;
15240;SDS011;7723;52.170;9.978;2023-03-11T01:02:49;0.00;;;0.00;;
15240;SDS011;7723;52.170;9.978;2023-03-11T01:05:17;0.00;;;0.00;;
15240;SDS011;7723;52.170;9.978;2023-03-11T01:07:44;0.00;;;0.00;;
15240;SDS011;7723;52.170;9.978;2023-03-11T01:10:11;0.00;;;0.00;;
15240;SDS011;7723;52.170;9.978;2023-03-11T01:12:38;0.33;;;0.20;;
15240;SDS011;7723;52.170;9.978;2023-03-11T01:15:08;0.00;;;0.00;;
15240;SDS011;7723;52.170;9.978;2023-03-11T01:17:39;0.00;;;0.00;;
15240;SDS011;7723;52.170;9.978;2023-03-11T01:20:06;1.50;;;0.30;;
15240;SDS011;7723;52.170;9.978;2023-03-11T01:22:35;0.00;;;0.00;;
15240;SDS011;7723;52.170;9.978;2023-03-11T01:25:02;0.00;;;0.00;;
15240;SDS011;7723;52.170;9.978;2023-03-11T01:27:30;0.00;;;0.00;;
15240;SDS011;7723;52.170;9.978;2023-03-11T01:29:57;0.00;;;0.00;;
15240;SDS011;7723;52.170;9.978;2023-03-11T01:32:25;0.00;;;0.00;;
15240;SDS011;7723;52.170;9.978;2023-03-11T01:34:52;0.00;;;0.00;;
15240;SDS011;7723;52.170;9.978;2023-03-11T01:37:19;0.00;;;0.00;;
15240;SDS011;7723;52.170;9.978;2023-03-11T01:39:47;0.00;;;0.00;;
15240;SDS011;7723;52.170;9.978;2023-03-11T01:42:14;2.73;;;1.60;;
15240;SDS011;7723;52.170;9.978;2023-03-11T01:44:41;0.00;;;0.00;;
15240;SDS011;7723;52.170;9.978;2023-03-11T01:47:31;0.00;;;0.00;;
15240;SDS011;7723;52.170;9.978;2023-03-11T01:50:02;0.00;;;0.00;;
15240;SDS011;7723;52.170;9.978;2023-03-11T01:52:32;0.00;;;0.00;;
15240;SDS011;7723;52.170;9.978;2023-03-11T01:54:59;0.00;;;0.00;;
15240;SDS011;7723;52.170;9.978;2023-03-11T01:57:26;0.00;;;0.00;;
15240;SDS011;7723;52.170;9.978;2023-03-11T01:59:55;0.00;;;0.00;;
15240;SDS011;7723;52.170;9.978;2023-03-11T02:02:24;0.00;;;0.00;;
15240;SDS011;7723;52.170;9.978;2023-03-11T02:04:59;0.00;;;0.00;;
15240;SDS011;7723;52.170;9.978;2023-03-11T02:07:28;0.77;;;0.77;;
15240;SDS011;7723;52.170;9.978;2023-03-11T02:09:55;0.53;;;0.53;;
15240;SDS011;7723;52.170;9.978;2023-03-11T02:12:22;0.00;;;0.00;;
15240;SDS011;7723;52.170;9.978;2023-03-11T02:14:51;0.23;;;0.23;;
15240;SDS011;7723;52.170;9.978;2023-03-11T02:17:19;0.00;;;0.00;;
15240;SDS011;7723;52.170;9.978;2023-03-11T02:19:53;0.00;;;0.00;;
15240;SDS011;7723;52.170;9.978;2023-03-11T02:22:28;0.00;;;0.00;;
15240;SDS011;7723;52.170;9.978;2023-03-11T02:24:59;0.00;;;0.00;;
15240;SDS011;7723;52.170;9.978;2023-03-11T02:27:32;0.00;;;0.00;;
15240;SDS011;7723;52.170;9.978;2023-03-11T02:30:02;0.00;;;0.00;;
15240;SDS011;7723;52.170;9.978;2023-03-11T02:32:29;0.00;;;0.00;;
15240;SDS011;7723;52.170;9.978;2023-03-11T02:34:57;0.00;;;0.00;;
15240;SDS011;7723;52.170;9.978;2023-03-11T02:37:24;0.00;;;0.00;;
15240;SDS011;7723;52.170;9.978;2023-03-11T02:39:52;0.00;;;0.00;;
15240;SDS011;7723;52.170;9.978;2023-03-11T02:42:21;0.00;;;0.00;;
15240;SDS011;7723;52.170;9.978;2023-03-11T02:44:54;3.80;;;1.60;;
15240;SDS011;7723;52.170;9.978;2023-03-11T02:47:25;0.00;;;0.00;;
15240;SDS011;7723;52.170;9.978;2023-03-11T02:49:53;0.00;;;0.00;;
15240;SDS011;7723;52.170;9.978;2023-03-11T02:52:21;0.00;;;0.00;;
15240;SDS011;7723;52.170;9.978;2023-03-11T02:54:50;0.00;;;0.00;;
15240;SDS011;7723;52.170;9.978;2023-03-11T02:57:17;0.00;;;0.00;;
15240;SDS011;7723;52.170;9.978;2023-03-11T02:59:44;0.00;;;0.00;;
15240;SDS011;7723;52.170;9.978;2023-03-11T03:02:13;0.00;;;0.00;;
15240;SDS011;7723;52.170;9.978;2023-03-11T03:04:40;0.00;;;0.00;;
15240;SDS011;7723;52.170;9.978;2023-03-11T03:07:07;0.17;;;0.17;;
15240;SDS011;7723;52.170;9.978;2023-03-11T03:09:34;0.00;;;0.00;;
15240;SDS011;7723;52.170;9.978;2023-03-11T03:12:01;0.10;;;0.10;;
15240;SDS011;7723;52.170;9.978;2023-03-11T03:14:29;0.00;;;0.00;;
15240;SDS011;7723;52.170;9.978;2023-03-11T03:16:57;1.47;;;1.13;;
15240;SDS011;7723;52.170;9.978;2023-03-11T03:19:25;0.00;;;0.00;;
15240;SDS011;7723;52.170;9.978;2023-03-11T03:21:52;0.40;;;0.40;;
15240;SDS011;7723;52.170;9.978;2023-03-11T03:24:19;0.00;;;0.00;;
15240;SDS011;7723;52.170;9.978;2023-03-11T03:26:46;0.00;;;0.00;;
15240;SDS011;7723;52.170;9.978;2023-03-11T03:29:14;0.53;;;0.53;;
15240;SDS011;7723;52.170;9.978;2023-03-11T03:31:41;0.00;;;0.00;;
15240;SDS011;7723;52.170;9.978;2023-03-11T03:34:08;0.00;;;0.00;;
15240;SDS011;7723;52.170;9.978;2023-03-11T03:36:36;0.00;;;0.00;;
15240;SDS011;7723;52.170;9.978;2023-03-11T03:39:04;0.00;;;0.00;;
15240;SDS011;7723;52.170;9.978;2023-03-11T03:41:31;0.73;;;0.67;;
15240;SDS011;7723;52.170;9.978;2023-03-11T03:43:59;0.27;;;0.27;;
15240;SDS011;7723;52.170;9.978;2023-03-11T03:46:26;0.00;;;0.00;;
15240;SDS011;7723;52.170;9.978;2023-03-11T03:48:53;0.00;;;0.00;;
15240;SDS011;7723;52.170;9.978;2023-03-11T03:51:20;0.00;;;0.00;;
15240;SDS011;7723;52.170;9.978;2023-03-11T03:53:49;0.00;;;0.00;;
15240;SDS011;7723;52.170;9.978;2023-03-11T03:56:16;0.00;;;0.00;;
15240;SDS011;7723;52.170;9.978;2023-03-11T03:58:44;0.00;;;0.00;;
15240;SDS011;7723;52.170;9.978;2023-03-11T04:01:11;0.00;;;0.00;;
15240;SDS011;7723;52.170;9.978;2023-03-11T04:03:38;0.00;;;0.00;;
15240;SDS011;7723;52.170;9.978;2023-03-11T04:06:06;0.00;;;0.00;;
15240;SDS011;7723;52.170;9.978;2023-03-11T04:08:34;0.00;;;0.00;;
15240;SDS011;7723;52.170;9.978;2023-03-11T04:11:03;0.00;;;0.00;;
15240;SDS011;7723;52.170;9.978;2023-03-11T04:13:30;0.00;;;0.00;;
15240;SDS011;7723;52.170;9.978;2023-03-11T04:15:58;0.00;;;0.00;;
15240;SDS011;7723;52.170;9.978;2023-03-11T04:18:25;0.30;;;0.30;;
15240;SDS011;7723;52.170;9.978;2023-03-11T04:20:52;0.00;;;0.00;;
15240;SDS011;7723;52.170;9.978;2023-03-11T04:23:19;0.47;;;0.40;;
15240;SDS011;7723;52.170;9.978;2023-03-11T04:25:46;0.00;;;0.00;;
15240;SDS011;7723;52.170;9.978;2023-03-11T04:28:14;0.00;;;0.00;;
15240;SDS011;7723;52.170;9.978;2023-03-11T04:30:42;0.00;;;0.00;;
15240;SDS011;7723;52.170;9.978;2023-03-11T04:33:09;0.00;;;0.00;;
15240;SDS011;7723;52.170;9.978;2023-03-11T04:35:36;0.00;;;0.00;;
15240;SDS011;7723;52.170;9.978;2023-03-11T04:38:04;0.00;;;0.00;;
15240;SDS011;7723;52.170;9.978;2023-03-11T04:40:31;0.00;;;0.00;;
15240;SDS011;7723;52.170;9.978;2023-03-11T04:42:58;0.00;;;0.00;;
15240;SDS011;7723;52.170;9.978;2023-03-11T04:45:27;0.50;;;0.50;;
15240;SDS011;7723;52.170;9.978;2023-03-11T04:47:54;0.00;;;0.00;;
15240;SDS011;7723;52.170;9.978;2023-03-11T04:50:21;0.00;;;0.00;;
15240;SDS011;7723;52.170;9.978;2023-03-11T04:52:48;0.00;;;0.00;;
15240;SDS011;7723;52.170;9.978;2023-03-11T04:55:15;0.00;;;0.00;;
15240;SDS011;7723;52.170;9.978;2023-03-11T04:57:42;0.00;;;0.00;;
15240;SDS011;7723;52.170;9.978;2023-03-11T05:00:10;0.00;;;0.00;;
15240;SDS011;7723;52.170;9.978;2023-03-11T05:02:41;0.00;;;0.00;;
15240;SDS011;7723;52.170;9.978;2023-03-11T05:05:08;0.00;;;0.00;;
15240;SDS011;7723;52.170;9.978;2023-03-11T05:07:35;0.00;;;0.00;;
15240;SDS011;7723;52.170;9.978;2023-03-11T05:10:03;0.50;;;0.50;;
15240;SDS011;7723;52.170;9.978;2023-03-11T05:12:30;0.00;;;0.00;;
15240;SDS011;7723;52.170;9.978;2023-03-11T05:14:58;0.00;;;0.00;;
15240;SDS011;7723;52.170;9.978;2023-03-11T05:17:25;0.00;;;0.00;;
15240;SDS011;7723;52.170;9.978;2023-03-11T05:19:53;0.00;;;0.00;;
15240;SDS011;7723;52.170;9.978;2023-03-11T05:22:21;0.00;;;0.00;;
15240;SDS011;7723;52.170;9.978;2023-03-11T05:24:48;0.00;;;0.00;;
15240;SDS011;7723;52.170;9.978;2023-03-11T05:27:16;0.00;;;0.00;;
15240;SDS011;7723;52.170;9.978;2023-03-11T05:29:43;0.00;;;0.00;;
15240;SDS011;7723;52.170;9.978;2023-03-11T05:32:11;0.00;;;0.00;;
15240;SDS011;7723;52.170;9.978;2023-03-11T05:34:38;0.00;;;0.00;;
15240;SDS011;7723;52.170;9.978;2023-03-11T05:37:07;0.00;;;0.00;;
15240;SDS011;7723;52.170;9.978;2023-03-11T05:39:34;0.00;;;0.00;;
15240;SDS011;7723;52.170;9.978;2023-03-11T05:42:02;0.00;;;0.00;;
15240;SDS011;7723;52.170;9.978;2023-03-11T05:44:29;0.00;;;0.00;;
15240;SDS011;7723;52.170;9.978;2023-03-11T05:46:57;0.00;;;0.00;;
15240;SDS011;7723;52.170;9.978;2023-03-11T05:49:24;0.00;;;0.00;;
15240;SDS011;7723;52.170;9.978;2023-03-11T05:51:51;0.00;;;0.00;;
15240;SDS011;7723;52.170;9.978;2023-03-11T05:54:20;0.00;;;0.00;;
15240;SDS011;7723;52.170;9.978;2023-03-11T05:56:47;0.00;;;0.00;;
15240;SDS011;7723;52.170;9.978;2023-03-11T05:59:14;0.00;;;0.00;;
15240;SDS011;7723;52.170;9.978;2023-03-11T06:01:42;0.33;;;0.33;;
15240;SDS011;7723;52.170;9.978;2023-03-11T06:04:09;0.00;;;0.00;;
15240;SDS011;7723;52.170;9.978;2023-03-11T06:06:37;0.07;;;0.07;;
15240;SDS011;7723;52.170;9.978;2023-03-11T06:09:05;0.00;;;0.00;;
15240;SDS011;7723;52.170;9.978;2023-03-11T06:11:34;0.00;;;0.00;;
15240;SDS011;7723;52.170;9.978;2023-03-11T06:14:01;0.00;;;0.00;;
15240;SDS011;7723;52.170;9.978;2023-03-11T06:16:28;0.00;;;0.00;;
15240;SDS011;7723;52.170;9.978;2023-03-11T06:18:55;0.00;;;0.00;;
15240;SDS011;7723;52.170;9.978;2023-03-11T06:21:24;0.00;;;0.00;;
15240;SDS011;7723;52.170;9.978;2023-03-11T06:23:51;0.00;;;0.00;;
15240;SDS011;7723;52.170;9.978;2023-03-11T06:26:19;0.00;;;0.00;;
15240;SDS011;7723;52.170;9.978;2023-03-11T06:28:49;0.00;;;0.00;;
15240;SDS011;7723;52.170;9.978;2023-03-11T06:31:18;0.00;;;0.00;;
15240;SDS011;7723;52.170;9.978;2023-03-11T06:33:46;0.00;;;0.00;;
15240;SDS011;7723;52.170;9.978;2023-03-11T06:36:16;0.00;;;0.00;;
15240;SDS011;7723;52.170;9.978;2023-03-11T06:38:45;0.10;;;0.10;;
15240;SDS011;7723;52.170;9.978;2023-03-11T06:41:13;0.00;;;0.00;;
15240;SDS011;7723;52.170;9.978;2023-03-11T06:43:40;0.00;;;0.00;;
15240;SDS011;7723;52.170;9.978;2023-03-11T06:46:09;0.00;;;0.00;;
15240;SDS011;7723;52.170;9.978;2023-03-11T06:48:37;0.00;;;0.00;;
15240;SDS011;7723;52.170;9.978;2023-03-11T06:51:05;0.00;;;0.00;;
15240;SDS011;7723;52.170;9.978;2023-03-11T06:53:32;0.00;;;0.00;;
15240;SDS011;7723;52.170;9.978;2023-03-11T06:55:59;0.00;;;0.00;;
15240;SDS011;7723;52.170;9.978;2023-03-11T06:58:28;0.00;;;0.00;;
15240;SDS011;7723;52.170;9.978;2023-03-11T07:00:58;0.00;;;0.00;;
15240;SDS011;7723;52.170;9.978;2023-03-11T07:03:28;1.03;;;1.03;;
15240;SDS011;7723;52.170;9.978;2023-03-11T07:05:55;0.00;;;0.00;;
15240;SDS011;7723;52.170;9.978;2023-03-11T07:08:22;0.00;;;0.00;;
15240;SDS011;7723;52.170;9.978;2023-03-11T07:10:58;0.00;;;0.00;;
15240;SDS011;7723;52.170;9.978;2023-03-11T07:13:26;0.00;;;0.00;;
15240;SDS011;7723;52.170;9.978;2023-03-11T07:15:58;0.00;;;0.00;;
15240;SDS011;7723;52.170;9.978;2023-03-11T07:18:28;0.00;;;0.00;;
15240;SDS011;7723;52.170;9.978;2023-03-11T07:20:55;0.00;;;0.00;;
15240;SDS011;7723;52.170;9.978;2023-03-11T07:23:22;0.00;;;0.00;;
15240;SDS011;7723;52.170;9.978;2023-03-11T07:25:49;0.00;;;0.00;;
15240;SDS011;7723;52.170;9.978;2023-03-11T07:28:17;0.00;;;0.00;;
15240;SDS011;7723;52.170;9.978;2023-03-11T07:30:44;0.00;;;0.00;;
15240;SDS011;7723;52.170;9.978;2023-03-11T07:33:12;0.00;;;0.00;;
15240;SDS011;7723;52.170;9.978;2023-03-11T07:35:41;0.00;;;0.00;;
15240;SDS011;7723;52.170;9.978;2023-03-11T07:38:09;0.00;;;0.00;;
15240;SDS011;7723;52.170;9.978;2023-03-11T07:40:36;0.00;;;0.00;;
15240;SDS011;7723;52.170;9.978;2023-03-11T07:43:03;0.00;;;0.00;;
15240;SDS011;7723;52.170;9.978;2023-03-11T07:45:30;0.00;;;0.00;;
15240;SDS011;7723;52.170;9.978;2023-03-11T07:47:57;0.00;;;0.00;;
15240;SDS011;7723;52.170;9.978;2023-03-11T07:50:24;0.10;;;0.10;;
15240;SDS011;7723;52.170;9.978;2023-03-11T07:52:53;0.00;;;0.00;;
15240;SDS011;7723;52.170;9.978;2023-03-11T07:55:20;0.00;;;0.00;;
15240;SDS011;7723;52.170;9.978;2023-03-11T07:57:47;0.00;;;0.00;;
15240;SDS011;7723;52.170;9.978;2023-03-11T08:00:16;0.00;;;0.00;;
15240;SDS011;7723;52.170;9.978;2023-03-11T08:02:44;0.00;;;0.00;;
15240;SDS011;7723;52.170;9.978;2023-03-11T08:05:11;0.00;;;0.00;;
15240;SDS011;7723;52.170;9.978;2023-03-11T08:07:38;0.00;;;0.00;;
15240;SDS011;7723;52.170;9.978;2023-03-11T08:10:07;0.00;;;0.00;;
15240;SDS011;7723;52.170;9.978;2023-03-11T08:12:35;0.00;;;0.00;;
15240;SDS011;7723;52.170;9.978;2023-03-11T08:15:03;0.00;;;0.00;;
15240;SDS011;7723;52.170;9.978;2023-03-11T08:17:30;0.00;;;0.00;;
15240;SDS011;7723;52.170;9.978;2023-03-11T08:19:57;0.00;;;0.00;;
15240;SDS011;7723;52.170;9.978;2023-03-11T08:22:24;0.00;;;0.00;;
15240;SDS011;7723;52.170;9.978;2023-03-11T08:24:51;0.00;;;0.00;;
15240;SDS011;7723;52.170;9.978;2023-03-11T08:27:22;0.00;;;0.00;;
15240;SDS011;7723;52.170;9.978;2023-03-11T08:29:49;0.63;;;0.63;;
15240;SDS011;7723;52.170;9.978;2023-03-11T08:32:16;0.57;;;0.57;;
15240;SDS011;7723;52.170;9.978;2023-03-11T08:34:43;0.00;;;0.00;;
15240;SDS011;7723;52.170;9.978;2023-03-11T08:37:10;0.00;;;0.00;;
15240;SDS011;7723;52.170;9.978;2023-03-11T08:39:37;0.00;;;0.00;;
15240;SDS011;7723;52.170;9.978;2023-03-11T08:42:04;0.00;;;0.00;;
15240;SDS011;7723;52.170;9.978;2023-03-11T08:44:32;0.00;;;0.00;;
15240;SDS011;7723;52.170;9.978;2023-03-11T08:47:00;0.00;;;0.00;;
15240;SDS011;7723;52.170;9.978;2023-03-11T08:49:27;0.00;;;0.00;;
15240;SDS011;7723;52.170;9.978;2023-03-11T08:51:54;0.00;;;0.00;;
15240;SDS011;7723;52.170;9.978;2023-03-11T08:54:21;0.17;;;0.10;;
15240;SDS011;7723;52.170;9.978;2023-03-11T08:56:48;0.00;;;0.00;;
15240;SDS011;7723;52.170;9.978;2023-03-11T08:59:15;0.00;;;0.00;;
15240;SDS011;7723;52.170;9.978;2023-03-11T09:01:43;0.00;;;0.00;;
15240;SDS011;7723;52.170;9.978;2023-03-11T09:04:11;0.00;;;0.00;;
15240;SDS011;7723;52.170;9.978;2023-03-11T09:06:40;0.00;;;0.00;;
15240;SDS011;7723;52.170;9.978;2023-03-11T09:09:08;0.00;;;0.00;;
15240;SDS011;7723;52.170;9.978;2023-03-11T09:11:36;0.00;;;0.00;;
15240;SDS011;7723;52.170;9.978;2023-03-11T09:14:03;0.00;;;0.00;;
15240;SDS011;7723;52.170;9.978;2023-03-11T09:16:31;0.00;;;0.00;;
15240;SDS011;7723;52.170;9.978;2023-03-11T09:18:59;0.00;;;0.00;;
15240;SDS011;7723;52.170;9.978;2023-03-11T09:21:31;0.47;;;0.45;;
15240;SDS011;7723;52.170;9.978;2023-03-11T09:23:58;0.00;;;0.00;;
15240;SDS011;7723;52.170;9.978;2023-03-11T09:26:25;0.00;;;0.00;;
15240;SDS011;7723;52.170;9.978;2023-03-11T09:28:52;0.00;;;0.00;;
15240;SDS011;7723;52.170;9.978;2023-03-11T09:31:19;0.00;;;0.00;;
15240;SDS011;7723;52.170;9.978;2023-03-11T09:33:46;0.00;;;0.00;;
15240;SDS011;7723;52.170;9.978;2023-03-11T09:36:16;0.00;;;0.00;;
15240;SDS011;7723;52.170;9.978;2023-03-11T09:38:44;0.00;;;0.00;;
15240;SDS011;7723;52.170;9.978;2023-03-11T09:41:16;0.00;;;0.00;;
15240;SDS011;7723;52.170;9.978;2023-03-11T09:43:52;0.00;;;0.00;;
15240;SDS011;7723;52.170;9.978;2023-03-11T09:46:51;0.00;;;0.00;;
15240;SDS011;7723;52.170;9.978;2023-03-11T09:49:32;0.00;;;0.00;;
15240;SDS011;7723;52.170;9.978;2023-03-11T09:52:10;0.00;;;0.00;;
15240;SDS011;7723;52.170;9.978;2023-03-11T09:54:39;0.00;;;0.00;;
15240;SDS011;7723;52.170;9.978;2023-03-11T09:57:08;0.00;;;0.00;;
15240;SDS011;7723;52.170;9.978;2023-03-11T09:59:40;0.00;;;0.00;;
15240;SDS011;7723;52.170;9.978;2023-03-11T10:02:09;0.00;;;0.00;;
15240;SDS011;7723;52.170;9.978;2023-03-11T10:04:41;0.00;;;0.00;;
15240;SDS011;7723;52.170;9.978;2023-03-11T10:07:20;0.00;;;0.00;;
15240;SDS011;7723;52.170;9.978;2023-03-11T10:09:54;0.20;;;0.20;;
15240;SDS011;7723;52.170;9.978;2023-03-11T10:12:29;0.00;;;0.00;;
15240;SDS011;7723;52.170;9.978;2023-03-11T10:15:09;0.00;;;0.00;;
15240;SDS011;7723;52.170;9.978;2023-03-11T10:18:06;0.00;;;0.00;;
15240;SDS011;7723;52.170;9.978;2023-03-11T10:20:47;0.00;;;0.00;;
15240;SDS011;7723;52.170;9.978;2023-03-11T10:23:25;0.00;;;0.00;;
15240;SDS011;7723;52.170;9.978;2023-03-11T10:25:59;0.00;;;0.00;;
15240;SDS011;7723;52.170;9.978;2023-03-11T10:28:31;0.00;;;0.00;;
15240;SDS011;7723;52.170;9.978;2023-03-11T10:31:03;0.00;;;0.00;;
15240;SDS011;7723;52.170;9.978;2023-03-11T10:33:43;0.10;;;0.10;;
15240;SDS011;7723;52.170;9.978;2023-03-11T10:36:15;0.00;;;0.00;;
15240;SDS011;7723;52.170;9.978;2023-03-11T10:38:50;0.00;;;0.00;;
15240;SDS011;7723;52.170;9.978;2023-03-11T10:41:19;0.00;;;0.00;;
15240;SDS011;7723;52.170;9.978;2023-03-11T10:43:50;0.00;;;0.00;;
15240;SDS011;7723;52.170;9.978;2023-03-11T10:46:22;0.00;;;0.00;;
15240;SDS011;7723;52.170;9.978;2023-03-11T10:48:51;0.00;;;0.00;;
15240;SDS011;7723;52.170;9.978;2023-03-11T10:51:19;0.00;;;0.00;;
15240;SDS011;7723;52.170;9.978;2023-03-11T10:53:48;0.00;;;0.00;;
15240;SDS011;7723;52.170;9.978;2023-03-11T10:56:23;0.00;;;0.00;;
15240;SDS011;7723;52.170;9.978;2023-03-11T10:58:53;0.00;;;0.00;;
15240;SDS011;7723;52.170;9.978;2023-03-11T11:01:20;0.00;;;0.00;;
15240;SDS011;7723;52.170;9.978;2023-03-11T11:03:48;0.00;;;0.00;;
15240;SDS011;7723;52.170;9.978;2023-03-11T11:06:18;0.00;;;0.00;;
15240;SDS011;7723;52.170;9.978;2023-03-11T11:08:50;0.00;;;0.00;;
15240;SDS011;7723;52.170;9.978;2023-03-11T11:11:31;0.00;;;0.00;;
15240;SDS011;7723;52.170;9.978;2023-03-11T11:13:59;0.00;;;0.00;;
15240;SDS011;7723;52.170;9.978;2023-03-11T11:16:27;0.00;;;0.00;;
15240;SDS011;7723;52.170;9.978;2023-03-11T11:18:56;0.00;;;0.00;;
15240;SDS011;7723;52.170;9.978;2023-03-11T11:21:28;0.00;;;0.00;;
15240;SDS011;7723;52.170;9.978;2023-03-11T11:24:08;0.00;;;0.00;;
15240;SDS011;7723;52.170;9.978;2023-03-11T11:26:40;2.30;;;2.20;;
15240;SDS011;7723;52.170;9.978;2023-03-11T11:29:12;0.00;;;0.00;;
15240;SDS011;7723;52.170;9.978;2023-03-11T11:31:41;0.00;;;0.00;;
15240;SDS011;7723;52.170;9.978;2023-03-11T11:34:28;0.00;;;0.00;;
15240;SDS011;7723;52.170;9.978;2023-03-11T11:36:57;0.00;;;0.00;;
15240;SDS011;7723;52.170;9.978;2023-03-11T11:39:29;1.80;;;0.47;;
15240;SDS011;7723;52.170;9.978;2023-03-11T11:42:01;0.00;;;0.00;;
15240;SDS011;7723;52.170;9.978;2023-03-11T11:44:30;0.00;;;0.00;;
15240;SDS011;7723;52.170;9.978;2023-03-11T11:47:01;0.00;;;0.00;;
15240;SDS011;7723;52.170;9.978;2023-03-11T11:49:35;0.00;;;0.00;;
15240;SDS011;7723;52.170;9.978;2023-03-11T11:52:04;0.00;;;0.00;;
15240;SDS011;7723;52.170;9.978;2023-03-11T11:54:37;0.00;;;0.00;;
15240;SDS011;7723;52.170;9.978;2023-03-11T11:57:09;0.00;;;0.00;;
15240;SDS011;7723;52.170;9.978;2023-03-11T11:59:38;0.00;;;0.00;;
15240;SDS011;7723;52.170;9.978;2023-03-11T12:02:11;0.17;;;0.17;;
15240;SDS011;7723;52.170;9.978;2023-03-11T12:04:51;0.00;;;0.00;;
15240;SDS011;7723;52.170;9.978;2023-03-11T12:10:17;0.00;;;0.00;;
15240;SDS011;7723;52.170;9.978;2023-03-11T12:12:53;0.00;;;0.00;;
15240;SDS011;7723;52.170;9.978;2023-03-11T12:15:40;0.10;;;0.10;;
15240;SDS011;7723;52.170;9.978;2023-03-11T12:18:13;0.00;;;0.00;;
15240;SDS011;7723;52.170;9.978;2023-03-11T12:20:43;0.00;;;0.00;;
15240;SDS011;7723;52.170;9.978;2023-03-11T12:23:17;0.00;;;0.00;;
15240;SDS011;7723;52.170;9.978;2023-03-11T12:25:51;0.00;;;0.00;;
15240;SDS011;7723;52.170;9.978;2023-03-11T12:28:30;0.00;;;0.00;;
15240;SDS011;7723;52.170;9.978;2023-03-11T12:31:06;0.00;;;0.00;;
15240;SDS011;7723;52.170;9.978;2023-03-11T12:33:36;0.00;;;0.00;;
15240;SDS011;7723;52.170;9.978;2023-03-11T12:36:05;0.00;;;0.00;;
15240;SDS011;7723;52.170;9.978;2023-03-11T12:38:46;0.00;;;0.00;;
15240;SDS011;7723;52.170;9.978;2023-03-11T12:41:27;0.33;;;0.27;;
15240;SDS011;7723;52.170;9.978;2023-03-11T12:44:02;3.33;;;0.80;;
15240;SDS011;7723;52.170;9.978;2023-03-11T12:49:42;3.40;;;0.90;;
15240;SDS011;7723;52.170;9.978;2023-03-11T12:52:19;1.77;;;0.70;;
15240;SDS011;7723;52.170;9.978;2023-03-11T12:57:49;7.03;;;1.00;;
15240;SDS011;7723;52.170;9.978;2023-03-11T13:00:25;4.20;;;1.03;;
15240;SDS011;7723;52.170;9.978;2023-03-11T13:03:12;1.23;;;0.53;;
15240;SDS011;7723;52.170;9.978;2023-03-11T13:05:56;2.13;;;0.60;;
15240;SDS011;7723;52.170;9.978;2023-03-11T13:08:32;3.63;;;0.70;;
15240;SDS011;7723;52.170;9.978;2023-03-11T13:11:12;2.23;;;0.90;;
15240;SDS011;7723;52.170;9.978;2023-03-11T13:14:08;2.47;;;1.00;;
15240;SDS011;7723;52.170;9.978;2023-03-11T13:16:46;2.40;;;0.67;;
15240;SDS011;7723;52.170;9.978;2023-03-11T13:25:24;3.27;;;0.40;;
15240;SDS011;7723;52.170;9.978;2023-03-11T13:27:56;0.80;;;0.30;;
15240;SDS011;7723;52.170;9.978;2023-03-11T13:30:45;5.07;;;0.80;;
15240;SDS011;7723;52.170;9.978;2023-03-11T13:33:20;2.30;;;0.50;;
15240;SDS011;7723;52.170;9.978;2023-03-11T13:36:09;4.00;;;0.90;;
15240;SDS011;7723;52.170;9.978;2023-03-11T13:38:53;8.23;;;3.10;;
15240;SDS011;7723;52.170;9.978;2023-03-11T13:41:46;4.72;;;1.10;;
15240;SDS011;7723;52.170;9.978;2023-03-11T13:44:16;6.13;;;0.70;;
15240;SDS011;7723;52.170;9.978;2023-03-11T13:46:53;2.53;;;0.80;;
15240;SDS011;7723;52.170;9.978;2023-03-11T13:49:29;4.83;;;1.70;;
15240;SDS011;7723;52.170;9.978;2023-03-11T13:52:00;7.67;;;3.63;;
15240;SDS011;7723;52.170;9.978;2023-03-11T13:54:31;6.30;;;0.90;;
15240;SDS011;7723;52.170;9.978;2023-03-11T13:57:05;3.20;;;0.93;;
15240;SDS011;7723;52.170;9.978;2023-03-11T13:59:50;2.57;;;0.50;;
15240;SDS011;7723;52.170;9.978;2023-03-11T14:02:21;3.83;;;0.83;;
15240;SDS011;7723;52.170;9.978;2023-03-11T14:04:50;2.67;;;0.70;;
15240;SDS011;7723;52.170;9.978;2023-03-11T14:07:22;5.73;;;0.73;;
15240;SDS011;7723;52.170;9.978;2023-03-11T14:09:51;2.90;;;1.27;;
15240;SDS011;7723;52.170;9.978;2023-03-11T14:12:46;1.13;;;0.57;;
15240;SDS011;7723;52.170;9.978;2023-03-11T14:15:14;6.17;;;0.80;;
15240;SDS011;7723;52.170;9.978;2023-03-11T14:17:46;3.07;;;0.63;;
15240;SDS011;7723;52.170;9.978;2023-03-11T14:20:16;2.53;;;1.03;;
15240;SDS011;7723;52.170;9.978;2023-03-11T14:22:46;1.10;;;0.60;;
15240;SDS011;7723;52.170;9.978;2023-03-11T14:25:18;1.35;;;0.60;;
15240;SDS011;7723;52.170;9.978;2023-03-11T14:27:50;3.10;;;0.60;;
15240;SDS011;7723;52.170;9.978;2023-03-11T14:30:22;5.25;;;0.52;;
15240;SDS011;7723;52.170;9.978;2023-03-11T14:32:56;0.83;;;0.50;;
15240;SDS011;7723;52.170;9.978;2023-03-11T14:35:26;2.73;;;0.80;;
15240;SDS011;7723;52.170;9.978;2023-03-11T14:37:54;1.70;;;0.60;;
15240;SDS011;7723;52.170;9.978;2023-03-11T14:40:23;2.40;;;0.50;;
15240;SDS011;7723;52.170;9.978;2023-03-11T14:42:52;1.10;;;0.40;;
15240;SDS011;7723;52.170;9.978;2023-03-11T14:45:22;3.43;;;0.53;;
15240;SDS011;7723;52.170;9.978;2023-03-11T14:47:52;4.83;;;0.63;;
15240;SDS011;7723;52.170;9.978;2023-03-11T14:50:27;2.80;;;0.63;;
15240;SDS011;7723;52.170;9.978;2023-03-11T14:52:59;2.27;;;0.80;;
15240;SDS011;7723;52.170;9.978;2023-03-11T14:55:34;4.93;;;1.20;;
15240;SDS011;7723;52.170;9.978;2023-03-11T14:58:05;1.67;;;0.77;;
15240;SDS011;7723;52.170;9.978;2023-03-11T15:00:38;2.13;;;0.53;;
15240;SDS011;7723;52.170;9.978;2023-03-11T15:03:16;0.50;;;0.50;;
15240;SDS011;7723;52.170;9.978;2023-03-11T15:05:49;2.63;;;0.80;;
15240;SDS011;7723;52.170;9.978;2023-03-11T15:08:19;3.07;;;0.80;;
15240;SDS011;7723;52.170;9.978;2023-03-11T15:11:00;3.27;;;0.70;;
15240;SDS011;7723;52.170;9.978;2023-03-11T15:13:30;2.10;;;0.77;;
15240;SDS011;7723;52.170;9.978;2023-03-11T15:15:58;2.83;;;0.60;;
15240;SDS011;7723;52.170;9.978;2023-03-11T15:18:29;2.27;;;0.87;;
15240;SDS011;7723;52.170;9.978;2023-03-11T15:21:01;3.23;;;0.70;;
15240;SDS011;7723;52.170;9.978;2023-03-11T15:23:31;1.57;;;0.60;;
15240;SDS011;7723;52.170;9.978;2023-03-11T15:25:59;0.93;;;0.43;;
15240;SDS011;7723;52.170;9.978;2023-03-11T15:28:28;2.23;;;0.50;;
15240;SDS011;7723;52.170;9.978;2023-03-11T15:31:13;1.33;;;0.50;;
15240;SDS011;7723;52.170;9.978;2023-03-11T15:33:42;2.27;;;0.80;;